Time;durP1;ratioP1;P1;durP2;ratioP2;P2;SDS_P1;SDS_P2;PMS_P1;PMS_P2;Temp;Humidity;BMP_temperature;BMP_pressure;BME280_temperature;BME280_humidity;BME280_pressure;Samples;Min_cycle;Max_cycle;Signal;HPM_P1;HPM_P2
2021/05/12 00:02:38;;;;;;;4.13;2.05;;;;;;;17.50;39.75;99788.00;255422;1100;114385;-80
2021/05/12 00:07:41;;;;;;;1.85;1.75;;;;;;;17.42;40.33;99790.43;255656;1100;114916;-82
2021/05/12 00:12:43;;;;;;;4.13;2.00;;;;;;;17.11;40.20;99780.22;260287;1107;114350;-80
2021/05/12 00:17:48;;;;;;;4.38;2.18;;;;;;;16.97;39.85;99781.30;260754;1100;114682;-80
2021/05/12 00:27:56;;;;;;;6.18;2.65;;;;;;;17.02;40.27;99786.33;255843;1107;114685;-79
2021/05/12 00:32:58;;;;;;;3.05;1.95;;;;;;;16.93;40.27;99790.56;256297;1100;114425;-80
2021/05/12 00:38:00;;;;;;;4.13;2.37;;;;;;;16.76;40.43;99775.66;256103;1100;114217;-79
2021/05/12 00:43:03;;;;;;;2.15;1.90;;;;;;;16.89;40.26;99779.13;255180;1100;114345;-80
2021/05/12 00:48:06;;;;;;;4.67;2.77;;;;;;;16.72;40.69;99779.58;257054;1107;114046;-79
2021/05/12 00:53:09;;;;;;;4.18;2.28;;;;;;;16.72;41.27;99785.80;258673;1107;113939;-77
2021/05/12 00:58:11;;;;;;;4.53;2.60;;;;;;;16.61;41.04;99776.81;261231;1100;114077;-80
2021/05/12 01:03:13;;;;;;;3.65;2.85;;;;;;;16.56;41.21;99779.88;258295;1100;114502;-80
2021/05/12 01:08:17;;;;;;;3.93;2.20;;;;;;;16.44;40.41;99778.08;256007;1100;114317;-82
2021/05/12 01:13:19;;;;;;;2.43;1.75;;;;;;;16.39;41.65;99770.34;255201;1100;114138;-81
2021/05/12 01:18:22;;;;;;;2.05;1.55;;;;;;;16.20;40.99;99760.97;255284;1106;114300;-80
2021/05/12 01:23:31;;;;;;;2.60;1.68;;;;;;;16.21;41.02;99761.84;255532;1100;114261;-81
2021/05/12 01:28:36;;;;;;;3.40;1.75;;;;;;;16.03;40.75;99755.98;255398;1106;114216;-81
2021/05/12 01:33:39;;;;;;;3.80;2.13;;;;;;;15.97;40.72;99753.72;255687;1107;114361;-79
2021/05/12 01:38:44;;;;;;;4.90;1.98;;;;;;;15.88;40.90;99741.81;255510;1106;114471;-79
2021/05/12 01:43:46;;;;;;;2.10;1.90;;;;;;;15.89;40.90;99741.69;255365;1100;114480;-85
2021/05/12 01:48:49;;;;;;;1.83;1.73;;;;;;;15.83;41.30;99744.83;255232;1100;114767;-81
2021/05/12 01:53:51;;;;;;;2.05;1.80;;;;;;;15.67;41.11;99738.84;255498;1100;115432;-80
2021/05/12 01:58:53;;;;;;;3.37;1.73;;;;;;;15.71;40.67;99743.88;255539;1106;114524;-84
2021/05/12 02:03:55;;;;;;;4.40;1.90;;;;;;;15.67;40.75;99736.14;255524;1100;114622;-79
2021/05/12 02:08:59;;;;;;;2.50;1.65;;;;;;;15.62;41.33;99740.00;255684;1106;114442;-81
2021/05/12 02:14:02;;;;;;;2.13;1.65;;;;;;;15.57;40.97;99730.58;256941;1106;114501;-83
2021/05/12 02:19:05;;;;;;;1.73;1.63;;;;;;;15.45;40.83;99733.15;256295;1100;114265;-81
2021/05/12 02:24:08;;;;;;;2.93;1.70;;;;;;;15.41;40.83;99728.98;256327;1106;114587;-82
2021/05/12 02:29:10;;;;;;;4.88;1.63;;;;;;;15.45;41.33;99722.41;256612;1106;114693;-81
2021/05/12 02:34:12;;;;;;;6.50;1.88;;;;;;;15.26;41.81;99730.05;256615;1107;114319;-80
2021/05/12 02:39:14;;;;;;;4.48;2.40;;;;;;;15.29;41.58;99727.17;256550;1100;114794;-81
2021/05/12 02:44:17;;;;;;;5.38;3.33;;;;;;;15.22;42.27;99729.41;256759;1107;114392;-80
2021/05/12 02:49:19;;;;;;;4.15;3.30;;;;;;;15.26;42.05;99722.84;256715;1101;114372;-81
2021/05/12 02:54:21;;;;;;;8.23;3.50;;;;;;;15.11;42.34;99727.47;255735;1107;114360;-82
2021/05/12 02:59:24;;;;;;;6.43;3.25;;;;;;;15.14;42.53;99724.59;255630;1106;114257;-81
2021/05/12 03:04:26;;;;;;;4.13;3.08;;;;;;;15.20;43.40;99730.48;255789;1106;114377;-82
2021/05/12 03:09:29;;;;;;;4.05;2.80;;;;;;;15.16;43.60;99726.28;256237;1106;114256;-80
2021/05/12 03:14:31;;;;;;;4.68;3.00;;;;;;;15.03;43.83;99729.83;255952;1107;114298;-83
2021/05/12 03:19:33;;;;;;;3.68;2.28;;;;;;;15.00;42.95;99732.74;257084;1100;114769;-80
2021/05/12 03:24:35;;;;;;;6.40;2.20;;;;;;;14.87;43.34;99737.23;259178;1100;114027;-83
2021/05/12 03:29:37;;;;;;;3.58;2.23;;;;;;;14.83;42.95;99731.22;256420;1107;114267;-80
2021/05/12 03:34:40;;;;;;;2.38;1.93;;;;;;;14.80;43.31;99734.95;257921;1107;114367;-74
2021/05/12 03:39:42;;;;;;;5.55;2.15;;;;;;;14.78;43.57;99725.28;255857;1100;114477;-83
2021/05/12 03:44:44;;;;;;;4.43;2.45;;;;;;;14.64;43.97;99729.73;256331;1107;114540;-84
2021/05/12 03:49:46;;;;;;;2.43;1.63;;;;;;;14.76;43.85;99730.77;256134;1100;114417;-82
2021/05/12 03:54:50;;;;;;;2.98;2.00;;;;;;;14.80;44.04;99728.73;255786;1100;114434;-83
2021/05/12 03:59:52;;;;;;;2.63;1.85;;;;;;;14.87;44.08;99732.72;255466;1106;114523;-84
2021/05/12 04:04:54;;;;;;;2.68;2.03;;;;;;;14.80;44.03;99732.27;255387;1100;114354;-83
2021/05/12 04:09:57;;;;;;;6.78;2.25;;;;;;;15.00;44.11;99730.06;255298;1100;114310;-79
2021/05/12 04:14:59;;;;;;;5.88;2.23;;;;;;;15.04;43.95;99728.86;255615;1100;114720;-79
2021/05/12 04:20:05;;;;;;;4.97;2.20;;;;;;;15.03;44.02;99727.14;256422;1100;114364;-79
2021/05/12 04:25:12;;;;;;;4.17;2.00;;;;;;;15.10;44.31;99723.06;257024;1107;114617;-78
2021/05/12 04:30:18;;;;;;;1.88;1.63;;;;;;;15.20;44.22;99723.28;256702;1100;114292;-79
2021/05/12 04:35:20;;;;;;;4.50;2.20;;;;;;;15.27;43.97;99723.72;256798;1107;114279;-79
2021/05/12 04:40:23;;;;;;;3.83;2.05;;;;;;;15.37;44.19;99724.77;257267;1101;114151;-78
2021/05/12 04:45:25;;;;;;;3.43;1.83;;;;;;;15.44;43.89;99723.38;257912;1100;114512;-85
2021/05/12 04:50:31;;;;;;;3.50;2.00;;;;;;;15.60;44.20;99730.34;257624;1107;114281;-80
2021/05/12 04:55:33;;;;;;;4.68;1.73;;;;;;;15.72;43.87;99718.70;256551;1100;114287;-82
2021/05/12 05:00:36;;;;;;;1.93;1.40;;;;;;;15.85;43.66;99720.55;256469;1100;114284;-83
2021/05/12 05:05:38;;;;;;;5.58;1.68;;;;;;;16.01;43.26;99710.38;255670;1106;114412;-82
2021/05/12 05:10:40;;;;;;;3.75;1.40;;;;;;;16.21;42.32;99702.69;255441;1107;114438;-82
2021/05/12 05:15:42;;;;;;;7.05;2.10;;;;;;;16.37;42.38;99705.92;255581;1106;114496;-78
2021/05/12 05:20:44;;;;;;;4.65;1.95;;;;;;;16.54;42.32;99717.25;255576;1100;114673;-78
2021/05/12 05:25:47;;;;;;;3.48;1.50;;;;;;;16.69;41.52;99721.47;255611;1107;114550;-79
2021/05/12 05:30:49;;;;;;;2.98;1.43;;;;;;;16.80;41.22;99714.39;255339;1106;114206;-81
2021/05/12 05:35:51;;;;;;;4.17;1.90;;;;;;;16.92;41.86;99721.54;255295;1100;114342;-82
2021/05/12 05:40:53;;;;;;;5.37;1.80;;;;;;;17.01;41.02;99712.76;255589;1100;114325;-84
2021/05/12 05:45:56;;;;;;;5.65;2.48;;;;;;;17.07;41.21;99708.74;256186;1105;114306;-81
2021/05/12 05:50:58;;;;;;;2.98;1.60;;;;;;;17.18;40.55;99718.67;256400;1102;114249;-81
2021/05/12 05:56:00;;;;;;;3.78;1.70;;;;;;;17.28;41.16;99713.41;255412;1106;114432;-81
2021/05/12 06:01:02;;;;;;;5.23;1.95;;;;;;;17.34;40.26;99692.22;255392;1107;114125;-81
2021/05/12 06:06:05;;;;;;;1.90;1.58;;;;;;;17.46;40.74;99716.48;255488;1100;114336;-82
2021/05/12 06:11:09;;;;;;;3.45;1.80;;;;;;;17.54;40.59;99692.48;255380;1100;114481;-81
2021/05/12 06:16:11;;;;;;;5.20;1.80;;;;;;;17.63;40.70;99707.89;255275;1100;114507;-81
2021/05/12 06:21:13;;;;;;;3.70;1.68;;;;;;;17.80;40.01;99713.77;257167;1107;114183;-81
2021/05/12 06:26:17;;;;;;;2.40;1.83;;;;;;;17.78;41.21;99713.02;255660;1100;114258;-82
2021/05/12 06:31:19;;;;;;;7.67;2.20;;;;;;;18.01;39.81;99697.69;256856;1100;114232;-79
2021/05/12 06:36:21;;;;;;;3.83;1.70;;;;;;;18.10;39.82;99718.52;261078;1101;114007;-81
2021/05/12 06:41:23;;;;;;;6.97;2.33;;;;;;;18.24;39.96;99717.39;260404;1103;114235;-82
2021/05/12 06:46:26;;;;;;;4.85;1.90;;;;;;;18.39;39.04;99698.20;257940;1100;114206;-82
2021/05/12 06:51:28;;;;;;;2.50;1.60;;;;;;;18.51;38.64;99691.77;258074;1107;114118;-82
2021/05/12 06:56:30;;;;;;;5.23;1.77;;;;;;;18.60;38.27;99709.89;259102;1100;114276;-82
2021/05/12 07:01:33;;;;;;;6.30;2.03;;;;;;;18.71;38.87;99686.51;257746;1107;114590;-81
2021/05/12 07:06:35;;;;;;;4.78;2.13;;;;;;;18.82;38.06;99690.98;256202;1107;114267;-82
2021/05/12 07:11:37;;;;;;;5.30;1.70;;;;;;;18.89;38.08;99697.58;256169;1105;114528;-82
2021/05/12 07:16:39;;;;;;;2.65;1.68;;;;;;;19.13;38.20;99675.72;255622;1100;114488;-85
2021/05/12 07:21:42;;;;;;;4.05;1.88;;;;;;;19.26;37.25;99676.34;255932;1107;114183;-80
2021/05/12 07:26:45;;;;;;;2.15;1.70;;;;;;;19.41;37.92;99682.27;255540;1099;114383;-83
2021/05/12 07:31:47;;;;;;;19.88;2.53;;;;;;;19.42;38.74;99677.70;255438;1100;114349;-82
2021/05/12 07:36:49;;;;;;;2.48;1.50;;;;;;;19.74;37.16;99669.41;255495;1100;114481;-82
2021/05/12 07:41:52;;;;;;;3.08;1.25;;;;;;;19.90;36.29;99674.31;255581;1107;114229;-82
2021/05/12 07:46:54;;;;;;;3.38;1.65;;;;;;;20.00;36.93;99673.48;255529;1100;114071;-81
2021/05/12 07:51:57;;;;;;;3.35;1.78;;;;;;;20.13;36.72;99678.61;256209;1106;114490;-81
2021/05/12 07:56:59;;;;;;;3.28;1.53;;;;;;;20.26;36.68;99672.94;255458;1100;114319;-83
2021/05/12 08:02:04;;;;;;;4.60;1.50;;;;;;;20.42;36.52;99662.41;255772;1106;114381;-82
2021/05/12 08:07:06;;;;;;;;;;;;;;;20.53;36.88;99680.35;257233;1100;114593;-83
2021/05/12 08:12:08;;;;;;;8.98;2.15;;;;;;;20.75;37.05;99667.54;257124;1107;103119;-84
2021/05/12 08:17:10;;;;;;;4.90;1.80;;;;;;;20.79;36.91;99668.95;257602;1101;114217;-82
2021/05/12 08:22:13;;;;;;;3.53;1.70;;;;;;;20.91;36.85;99646.11;256373;1106;114452;-80
2021/05/12 08:27:15;;;;;;;5.28;1.83;;;;;;;21.14;37.30;99654.76;256029;1106;114951;-82
2021/05/12 08:32:18;;;;;;;5.63;1.65;;;;;;;21.47;35.60;99678.71;256247;1100;114256;-85
2021/05/12 08:37:20;;;;;;;3.75;1.50;;;;;;;21.65;35.44;99657.11;256159;1106;114692;-83
2021/05/12 08:42:23;;;;;;;2.45;1.20;;;;;;;21.74;35.32;99641.81;256007;1107;114631;-85
2021/05/12 08:47:26;;;;;;;1.40;1.03;;;;;;;21.72;35.81;99638.38;256031;1101;114352;-83
2021/05/12 08:52:29;;;;;;;3.23;1.13;;;;;;;21.81;35.25;99643.75;256394;1107;114555;-80
2021/05/12 08:57:31;;;;;;;7.00;1.50;;;;;;;22.21;32.71;99644.33;257564;1101;114643;-81
2021/05/12 09:02:34;;;;;;;1.90;1.30;;;;;;;22.34;33.08;99646.66;255989;1100;114220;-83
2021/05/12 09:07:36;;;;;;;5.28;1.40;;;;;;;22.48;33.27;99622.70;256117;1103;114490;-81
2021/05/12 09:12:59;;;;;;;4.45;1.30;;;;;;;22.60;33.04;99630.41;256257;1107;114270;-82
2021/05/12 09:18:04;;;;;;;3.60;1.00;;;;;;;22.70;34.92;99622.16;255918;1102;114564;-83
2021/05/12 09:23:08;;;;;;;4.88;1.30;;;;;;;22.63;36.87;99625.69;256533;1100;114311;-83
2021/05/12 09:28:19;;;;;;;4.40;1.50;;;;;;;22.86;34.35;99606.99;256687;1107;114231;-82
2021/05/12 09:33:30;;;;;;;2.75;1.70;;;;;;;23.05;35.22;99614.08;258373;1100;114499;-81
2021/05/12 09:38:34;;;;;;;4.93;1.35;;;;;;;23.28;34.56;99619.82;258126;1107;114539;-85
2021/05/12 09:43:50;;;;;;;2.78;1.23;;;;;;;23.42;35.33;99614.78;258860;1107;114547;-83
2021/05/12 09:48:59;;;;;;;5.83;1.50;;;;;;;23.44;34.33;99607.31;259459;1102;114438;-84
2021/05/12 09:54:08;;;;;;;5.08;1.45;;;;;;;23.54;35.05;99618.92;257783;1107;114268;-83
2021/05/12 09:59:25;;;;;;;2.53;1.28;;;;;;;23.77;34.26;99607.41;256463;1107;114329;-82
2021/05/12 10:04:43;;;;;;;2.77;1.00;;;;;;;23.87;32.91;99608.96;256258;1107;114658;-83
2021/05/12 10:09:49;;;;;;;4.85;1.30;;;;;;;24.05;33.37;99610.73;256445;1100;114258;-84
2021/05/12 10:14:56;;;;;;;2.35;1.15;;;;;;;24.08;33.86;99601.38;256320;1100;114122;-83
2021/05/12 10:19:58;;;;;;;3.30;1.25;;;;;;;24.27;34.23;99614.66;256338;1100;114605;-83
2021/05/12 10:25:01;;;;;;;4.37;1.97;;;;;;;24.36;33.63;99612.78;256276;1100;114646;-81
2021/05/12 10:30:05;;;;;;;3.17;1.27;;;;;;;24.53;33.57;99608.17;255964;1106;114268;-85
2021/05/12 10:35:12;;;;;;;4.07;1.73;;;;;;;24.61;32.45;99610.91;255940;1100;114223;-85
2021/05/12 10:40:21;;;;;;;4.50;1.83;;;;;;;24.70;32.36;99619.10;256509;1100;114143;-82
2021/05/12 10:45:33;;;;;;;8.90;1.85;;;;;;;24.71;32.01;99601.73;257320;1100;114146;-80
2021/05/12 10:50:43;;;;;;;3.88;2.95;;;;;;;24.92;32.33;99607.48;255570;1107;114292;-83
2021/05/12 10:56:13;;;;;;;7.40;2.65;;;;;;;25.02;32.88;99592.82;255508;1107;114663;-81
2021/05/12 11:01:16;;;;;;;7.88;1.55;;;;;;;25.27;30.82;99593.55;255537;1103;114281;-82
2021/05/12 11:06:20;;;;;;;6.88;1.43;;;;;;;25.44;31.39;99595.23;255371;1106;114194;-80
2021/05/12 11:11:22;;;;;;;4.78;1.40;;;;;;;25.61;31.52;99579.63;256735;1102;114626;-81
2021/05/12 11:16:24;;;;;;;5.33;1.03;;;;;;;25.82;31.07;99578.13;260033;1107;114246;-81
2021/05/12 11:21:34;;;;;;;5.70;1.30;;;;;;;26.25;30.48;99583.16;257347;1102;114458;-80
2021/05/12 11:31:47;;;;;;;3.57;1.00;;;;;;;26.76;29.63;99571.59;255817;1100;114298;-81
2021/05/12 11:36:50;;;;;;;2.25;0.90;;;;;;;26.79;28.74;99576.67;255900;1107;114464;-81
2021/05/12 11:41:53;;;;;;;5.95;1.30;;;;;;;26.48;28.48;99561.26;255858;1102;114277;-84
2021/05/12 11:46:55;;;;;;;4.63;1.40;;;;;;;26.24;28.95;99571.36;255740;1107;114372;-82
2021/05/12 11:52:00;;;;;;;5.43;1.43;;;;;;;25.94;29.63;99562.19;255652;1100;114254;-84
2021/05/12 11:57:02;;;;;;;3.28;1.30;;;;;;;26.30;29.91;99556.13;255789;1106;114231;-81
2021/05/12 12:02:11;;;;;;;4.10;1.10;;;;;;;26.60;28.60;99531.59;255726;1100;114163;-82
2021/05/12 12:07:13;;;;;;;6.33;3.90;;;;;;;26.59;29.21;99531.77;255660;1100;114410;-83
2021/05/12 12:12:15;;;;;;;3.40;1.47;;;;;;;26.49;29.39;99538.37;255423;1106;114239;-83
2021/05/12 12:17:18;;;;;;;3.40;1.55;;;;;;;26.60;30.01;99541.66;255489;1107;114469;-83
2021/05/12 12:22:20;;;;;;;5.68;1.88;;;;;;;26.63;30.33;99538.56;255552;1100;114201;-82
2021/05/12 12:27:23;;;;;;;6.85;2.75;;;;;;;26.56;29.45;99539.32;255617;1107;114211;-82
2021/05/12 12:32:27;;;;;;;4.13;1.58;;;;;;;26.32;30.39;99537.68;255560;1100;114268;-82
2021/05/12 12:37:32;;;;;;;7.10;1.68;;;;;;;26.29;28.86;99542.66;255632;1107;114637;-82
2021/05/12 12:42:54;;;;;;;10.23;2.08;;;;;;;26.19;29.79;99527.38;255742;1107;114393;-82
2021/05/12 12:48:07;;;;;;;6.03;1.80;;;;;;;26.30;29.45;99533.41;255993;1106;114803;-83
2021/05/12 12:53:10;;;;;;;;;;;;;;;26.41;29.33;99525.62;256647;1100;114574;-83
2021/05/12 12:58:12;;;;;;;7.58;1.50;;;;;;;26.39;29.37;99521.38;257209;1100;103443;-83
2021/05/12 13:03:15;;;;;;;5.45;2.18;;;;;;;26.49;29.44;99534.77;259255;1106;114118;-82
2021/05/12 13:08:30;;;;;;;7.30;4.50;;;;;;;26.29;29.49;99521.64;259025;1107;114244;-82
2021/05/12 13:13:39;;;;;;;3.60;2.20;;;;;;;26.41;31.44;99528.34;256553;1100;114755;-83
2021/05/12 13:18:52;;;;;;;6.30;2.00;;;;;;;26.64;30.24;99510.20;257204;1100;114510;-83
2021/05/12 13:24:08;;;;;;;7.05;2.00;;;;;;;26.61;28.67;99497.73;256369;1107;114274;-84
2021/05/12 13:29:14;;;;;;;3.33;1.90;;;;;;;26.64;28.66;99519.23;256103;1100;114201;-83
2021/05/12 13:34:19;;;;;;;3.08;1.75;;;;;;;26.83;29.72;99511.53;256393;1107;114104;-83
2021/05/12 13:39:23;;;;;;;6.93;1.95;;;;;;;26.74;28.64;99513.49;256351;1100;114607;-83
2021/05/12 13:44:25;;;;;;;9.48;3.45;;;;;;;26.72;30.16;99500.02;256231;1100;114738;-82
2021/05/12 13:49:27;;;;;;;6.33;2.63;;;;;;;26.55;29.12;99515.76;256388;1106;114343;-82
2021/05/12 13:54:35;;;;;;;3.48;2.28;;;;;;;26.59;28.69;99499.84;256345;1100;114374;-82
2021/05/12 14:04:48;;;;;;;5.30;2.50;;;;;;;26.94;29.45;99499.27;256309;1106;114421;-80
2021/05/12 14:09:52;;;;;;;5.35;2.20;;;;;;;27.12;27.85;99493.41;256099;1106;114225;-82
2021/05/12 14:20:01;;;;;;;2.95;2.45;;;;;;;27.36;26.94;99489.48;258323;1106;114466;-82
2021/05/12 14:25:04;;;;;;;6.35;2.70;;;;;;;27.58;26.95;99482.19;256915;1101;114386;-83
2021/05/12 14:30:07;;;;;;;4.68;2.68;;;;;;;27.47;27.17;99486.28;256045;1107;114465;-84
2021/05/12 14:35:10;;;;;;;5.43;2.53;;;;;;;27.12;27.95;99483.33;256937;1107;115850;-82
2021/05/12 14:40:12;;;;;;;5.43;2.70;;;;;;;27.19;29.40;99473.31;259342;1107;114258;-81
2021/05/12 14:45:15;;;;;;;4.03;3.05;;;;;;;27.26;29.64;99467.07;256352;1107;114334;-80
2021/05/12 14:50:17;;;;;;;7.33;3.70;;;;;;;27.08;29.40;99471.06;255330;1100;114386;-76
2021/05/12 15:10:58;;;;;;;2.50;2.30;;;;;;;26.91;29.56;99470.43;255077;1100;114387;-76
2021/05/12 15:16:00;;;;;;;4.48;2.88;;;;;;;27.29;29.04;99455.73;255213;1102;114420;-75
2021/05/12 15:21:02;;;;;;;2.88;2.43;;;;;;;27.65;26.95;99457.61;255282;1107;114253;-77
2021/05/12 15:26:05;;;;;;;3.65;2.85;;;;;;;27.95;27.22;99449.24;255347;1100;114672;-79
2021/05/12 15:31:07;;;;;;;7.00;3.30;;;;;;;28.80;27.14;99453.86;255467;1100;114260;-79
2021/05/12 15:36:10;;;;;;;7.00;2.75;;;;;;;29.05;26.72;99454.18;255397;1104;114298;-78
2021/05/12 15:41:12;;;;;;;4.03;3.00;;;;;;;29.56;26.68;99452.86;255836;1104;114267;-75
2021/05/12 15:46:14;;;;;;;9.63;3.88;;;;;;;29.65;25.83;99448.00;257215;1100;114597;-77
2021/05/12 15:51:16;;;;;;;3.95;3.30;;;;;;;29.22;26.05;99449.17;257320;1098;114599;-79
2021/05/12 15:56:19;;;;;;;5.55;3.20;;;;;;;28.66;26.57;99451.02;255957;1104;114217;-78
2021/05/12 16:01:22;;;;;;;7.75;3.25;;;;;;;28.69;27.50;99456.11;256137;1104;114660;-76
2021/05/12 16:06:25;;;;;;;4.20;3.80;;;;;;;27.64;27.99;99453.17;255393;1102;114772;-77
2021/05/12 16:11:28;;;;;;;4.30;3.73;;;;;;;27.06;28.75;99445.81;255505;1104;114530;-81
2021/05/12 16:16:30;;;;;;;;;;;;;;;26.29;29.97;99447.06;255263;1100;114649;-77
2021/05/12 16:21:32;;;;;;;5.63;3.63;;;;;;;26.11;29.61;99437.33;257354;1107;103238;-77
2021/05/12 16:26:35;;;;;;;8.43;3.80;;;;;;;25.90;30.36;99436.13;257812;1100;113971;-77
2021/05/12 16:31:37;;;;;;;5.63;3.90;;;;;;;25.73;30.39;99442.75;258025;1104;114139;-77
2021/05/12 16:36:39;;;;;;;4.60;4.17;;;;;;;25.51;30.72;99445.33;256098;1104;114175;-74
2021/05/12 16:41:44;;;;;;;6.27;5.23;;;;;;;25.64;31.59;99435.67;255866;1104;114311;-74
2021/05/12 16:46:50;;;;;;;6.23;4.73;;;;;;;25.47;31.73;99441.25;257229;1089;114338;-73
2021/05/12 16:51:53;;;;;;;7.80;5.75;;;;;;;25.34;32.50;99432.79;256838;1104;114412;-74
2021/05/12 16:56:55;;;;;;;7.58;6.88;;;;;;;25.15;33.09;99426.79;256794;1099;114248;-76
2021/05/12 17:01:57;;;;;;;6.98;6.40;;;;;;;24.96;33.95;99433.53;257690;1100;114322;-74
2021/05/12 17:07:00;;;;;;;8.58;7.68;;;;;;;24.84;34.13;99441.25;257685;1104;114364;-73
2021/05/12 17:12:06;;;;;;;10.48;7.08;;;;;;;24.55;34.75;99426.34;257162;1100;114300;-75
2021/05/12 17:17:10;;;;;;;8.93;7.63;;;;;;;24.59;36.34;99427.72;257457;1090;115478;-76
2021/05/12 17:22:16;;;;;;;8.10;7.40;;;;;;;24.41;35.91;99421.63;256714;1107;115076;-75
2021/05/12 17:27:24;;;;;;;11.00;7.38;;;;;;;24.18;36.38;99425.09;256959;1107;114406;-73
2021/05/12 17:32:30;;;;;;;7.85;7.05;;;;;;;24.16;37.15;99440.77;256834;1107;114483;-76
2021/05/12 17:37:32;;;;;;;8.83;7.10;;;;;;;23.96;37.79;99427.53;256547;1100;114361;-74
2021/05/12 17:42:38;;;;;;;9.33;8.58;;;;;;;23.86;38.96;99429.55;256693;1100;114429;-74
2021/05/12 17:47:43;;;;;;;8.43;7.48;;;;;;;23.79;39.38;99428.52;258030;1101;114408;-71
2021/05/12 17:52:49;;;;;;;8.40;7.33;;;;;;;23.60;39.68;99432.43;257578;1100;114773;-73
2021/05/12 17:58:02;;;;;;;11.05;6.08;;;;;;;23.43;40.56;99439.73;258761;1100;114141;-72
2021/05/12 18:03:13;;;;;;;7.85;6.08;;;;;;;23.35;40.81;99441.41;258009;1106;114451;-68
2021/05/12 18:08:20;;;;;;;6.90;5.68;;;;;;;23.11;40.75;99433.20;255927;1100;114847;-74
2021/05/12 18:18:51;;;;;;;5.73;5.15;;;;;;;22.94;42.20;99454.88;256680;1100;114135;-75
2021/05/12 18:23:57;;;;;;;7.73;5.70;;;;;;;22.87;43.28;99464.70;256929;1105;114188;-72
2021/05/12 18:28:59;;;;;;;6.30;5.48;;;;;;;22.75;43.42;99475.88;257565;1100;114849;-71
2021/05/12 18:34:02;;;;;;;7.25;5.60;;;;;;;22.58;43.86;99476.80;256709;1107;114284;-72
2021/05/12 18:39:55;;;;;;;6.73;5.17;;;;;;;22.25;44.50;99482.00;257881;1088;114406;-72
2021/05/12 18:44:34;;;;;;;7.23;4.88;;;;;;;22.22;44.18;99485.02;256852;1104;114213;-72
2021/05/12 18:49:46;;;;;;;7.88;4.90;;;;;;;22.09;44.26;99494.44;258673;1089;114248;-74
2021/05/12 18:54:53;;;;;;;8.78;4.43;;;;;;;21.90;44.68;99495.47;255883;1107;114235;-72
2021/05/12 18:59:56;;;;;;;7.08;4.45;;;;;;;21.80;44.07;99500.98;256204;1105;114337;-72
2021/05/12 19:04:58;;;;;;;8.90;5.13;;;;;;;21.87;44.96;99517.50;257290;1107;114943;-76
2021/05/12 19:10:06;;;;;;;5.58;4.25;;;;;;;21.71;45.82;99515.47;256901;1102;114357;-73
2021/05/12 19:15:21;;;;;;;4.80;4.30;;;;;;;21.53;44.97;99509.16;257358;1107;114648;-71
2021/05/12 19:20:33;;;;;;;4.00;3.48;;;;;;;21.35;42.64;99518.15;257050;1107;114805;-78
2021/05/12 19:26:06;;;;;;;3.70;3.23;;;;;;;21.24;42.50;99511.08;257720;1107;114608;-77
2021/05/12 19:41:59;;;;;;;4.35;2.75;;;;;;;20.81;41.51;99510.72;256845;1107;114701;-72
2021/05/12 19:47:02;;;;;;;3.20;2.90;;;;;;;20.81;41.34;99510.72;259873;1089;114360;-74
2021/05/12 19:52:08;;;;;;;;;;;;;;;20.50;40.52;99510.95;258915;1100;114652;-75
2021/05/12 20:02:30;;;;;;;3.53;2.65;;;;;;;20.31;40.53;99510.98;257050;1100;114058;-76
2021/05/12 20:07:46;;;;;;;3.68;2.28;;;;;;;20.18;39.76;99514.02;257181;1107;114153;-79
2021/05/12 20:13:03;;;;;;;2.70;2.00;;;;;;;20.01;39.18;99502.09;258263;1089;114622;-74
2021/05/12 20:18:09;;;;;;;4.98;1.93;;;;;;;19.95;37.83;99500.80;257106;1104;113421;-70
2021/05/12 20:23:12;;;;;;;2.95;2.00;;;;;;;19.78;38.00;99506.89;256913;1099;113778;-76
2021/05/12 20:28:14;;;;;;;4.90;2.18;;;;;;;19.74;38.33;99512.59;256978;1100;113005;-75
2021/05/12 20:38:19;;;;;;;2.25;1.85;;;;;;;19.54;37.89;99506.31;257265;1104;114288;-73
2021/05/12 20:43:22;;;;;;;3.03;1.68;;;;;;;19.35;37.40;99506.30;257632;1104;114219;-72
2021/05/12 20:48:24;;;;;;;3.43;1.58;;;;;;;19.24;37.42;99505.41;257717;1104;114297;-72
2021/05/12 20:53:36;;;;;;;4.18;2.15;;;;;;;19.16;37.77;99502.58;257670;1100;114570;-73
2021/05/12 20:58:38;;;;;;;3.43;1.85;;;;;;;19.02;37.56;99501.11;257116;1104;114328;-73
2021/05/12 21:03:41;;;;;;;3.53;1.65;;;;;;;19.00;37.39;99503.08;256073;1100;1557584;-73
2021/05/12 21:08:44;;;;;;;4.13;1.65;;;;;;;19.11;38.18;99494.02;258153;1104;114647;-74
2021/05/12 21:13:46;;;;;;;3.73;1.88;;;;;;;19.11;38.51;99499.41;256393;1100;114878;-72
2021/05/12 21:18:48;;;;;;;3.13;1.83;;;;;;;18.72;38.16;99497.41;256718;1100;114269;-72
2021/05/12 21:23:51;;;;;;;5.30;3.17;;;;;;;18.89;38.54;99490.50;256711;1104;114533;-74
2021/05/12 21:28:53;;;;;;;3.25;2.38;;;;;;;18.91;39.79;99493.09;256815;1100;114275;-74
2021/05/12 21:33:56;;;;;;;5.13;1.58;;;;;;;18.78;39.92;99488.77;257359;1104;114428;-72
2021/05/12 21:38:59;;;;;;;4.10;1.73;;;;;;;18.70;39.59;99482.34;257465;1104;114533;-74
2021/05/12 21:44:04;;;;;;;1.75;1.33;;;;;;;18.29;38.34;99483.16;257124;1104;114488;-73
2021/05/12 21:49:11;;;;;;;2.63;1.63;;;;;;;18.24;38.82;99484.53;257424;1105;114135;-71
2021/05/12 21:54:13;;;;;;;2.63;1.40;;;;;;;18.02;39.20;99472.06;258102;1099;115352;-72
2021/05/12 21:59:15;;;;;;;6.85;2.08;;;;;;;18.00;39.37;99478.44;257516;1089;115452;-70
2021/05/12 22:04:20;;;;;;;4.45;1.53;;;;;;;18.03;39.59;99469.22;256986;1100;114310;-71
2021/05/12 22:09:46;;;;;;;3.33;1.70;;;;;;;18.08;40.09;99469.67;256925;1099;114273;-70
2021/05/12 22:30:54;;;;;;;1.15;0.90;;;;;;;17.64;40.52;99464.38;257317;1100;114238;-70
2021/05/12 22:36:00;;;;;;;2.78;1.28;;;;;;;17.74;41.47;99460.91;257799;1100;114184;-71
2021/05/12 22:41:09;;;;;;;2.15;1.58;;;;;;;17.62;41.93;99460.11;257834;1104;114292;-66
2021/05/12 22:46:14;;;;;;;;;;;;;;;17.42;41.40;99450.99;256918;1100;114552;-70
2021/05/12 22:51:17;;;;;;;2.75;1.20;;;;;;;17.26;41.48;99444.22;257398;1104;103101;-71
2021/05/12 22:56:23;;;;;;;2.85;1.10;;;;;;;16.90;42.04;99440.86;257130;1100;114279;-71
2021/05/12 23:01:25;;;;;;;2.67;1.07;;;;;;;16.85;42.36;99432.27;257693;1104;114122;-70
2021/05/12 23:06:31;;;;;;;3.65;0.98;;;;;;;16.90;42.50;99440.86;258903;1100;114124;-71
2021/05/12 23:11:34;;;;;;;2.45;1.05;;;;;;;16.88;44.20;99438.27;258369;1104;114247;-72
2021/05/12 23:16:36;;;;;;;2.78;1.18;;;;;;;16.53;43.47;99433.06;258307;1099;114616;-71
2021/05/12 23:21:40;;;;;;;2.80;0.93;;;;;;;16.45;43.50;99436.38;257958;1104;114413;-72
2021/05/12 23:26:42;;;;;;;3.35;0.90;;;;;;;16.37;44.31;99428.06;258097;1100;114373;-71
2021/05/12 23:31:45;;;;;;;3.50;0.83;;;;;;;16.45;44.89;99431.00;257222;1099;114781;-71
2021/05/12 23:36:47;;;;;;;2.25;0.90;;;;;;;16.43;44.77;99429.38;257988;1099;114852;-70
2021/05/12 23:41:51;;;;;;;1.45;0.88;;;;;;;16.23;45.19;99430.02;257265;1100;114286;-72
2021/05/12 23:46:58;;;;;;;2.73;0.93;;;;;;;16.07;45.57;99430.34;256926;1104;114507;-72
2021/05/12 23:52:02;;;;;;;3.10;1.03;;;;;;;16.09;46.12;99412.27;257279;1104;114258;-71
2021/05/12 23:57:04;;;;;;;1.53;0.83;;;;;;;16.27;46.67;99427.94;256622;1100;114784;-70
